| time (UTC) | temp C | wind direction | speed KPH | gust KPH | rain 1hr cm | rain 24hr cm | rain mn cm | humidity % | barometer mb |
| 20260507134609 | 12 | 292 | 9.7 | 16.1 | 0.00 | 2.36 | 0.51 | 77 | 1004.8 |
| 20260507133133 | 12 | 241 | 6.4 | 20.9 | 0.00 | 2.36 | 0.51 | 83 | 1005.1 |
| 20260507131557 | 11 | 314 | 9.7 | 27.4 | 0.00 | 2.36 | 0.51 | 87 | 1005.4 |
| 20260507130106 | 11 | 305 | 8.0 | 16.1 | 0.00 | 2.36 | 0.51 | 86 | 1005.0 |
| 20260507124554 | 10 | 318 | 6.4 | 16.1 | 0.00 | 2.36 | 0.51 | 85 | 1005.2 |
| 20260507123052 | 10 | 314 | 8.0 | 19.3 | 0.00 | 2.36 | 0.51 | 90 | 1004.8 |
| 20260507121603 | 9 | 312 | 11.3 | 16.1 | 0.00 | 2.36 | 0.51 | 91 | 1004.6 |
| 20260507120056 | 9 | 296 | 8.0 | 14.5 | 0.00 | 2.36 | 0.51 | 92 | 1004.8 |
| 20260507114627 | 8 | 274 | 4.8 | 11.3 | 0.00 | 2.36 | 0.51 | 92 | 1005.8 |
| 20260507113045 | 8 | 278 | 4.8 | 9.7 | 0.00 | 2.36 | 0.51 | 93 | 1005.5 |
| 20260507111547 | 8 | 273 | 1.6 | 9.7 | 0.00 | 2.36 | 0.51 | 92 | 1005.6 |
| 20260507110043 | 7 | 290 | 4.8 | 9.7 | 0.00 | 2.36 | 0.51 | 93 | 1005.3 |
| 20260507104542 | 7 | 282 | 6.4 | 14.5 | 0.00 | 2.36 | 0.51 | 93 | 1005.6 |
| 20260507103040 | 7 | 318 | 6.4 | 17.7 | 0.00 | 2.36 | 0.51 | 93 | 1004.7 |
| 20260507101542 | 7 | 309 | 11.3 | 17.7 | 0.00 | 2.36 | 0.51 | 94 | 1004.6 |
| 20260507100036 | 7 | 326 | 6.4 | 17.7 | 0.00 | 2.36 | 0.51 | 94 | 1004.2 |
| 20260507094534 | 7 | 316 | 11.3 | 22.5 | 0.00 | 2.36 | 0.51 | 94 | 1004.4 |
| 20260507093033 | 8 | 306 | 11.3 | 19.3 | 0.00 | 2.36 | 0.51 | 94 | 1004.5 |
| 20260507091540 | 8 | 311 | 9.7 | 20.9 | 0.00 | 2.36 | 0.51 | 94 | 1004.4 |
| 20260507090036 | 8 | 306 | 9.7 | 27.4 | 0.00 | 2.36 | 0.51 | 94 | 1004.6 |
| 20260507084528 | 8 | 337 | 12.9 | 22.5 | 0.00 | 2.36 | 0.51 | 95 | 1004.3 |
| 20260507083031 | 8 | 299 | 11.3 | 19.3 | 0.00 | 2.36 | 0.51 | 95 | 1003.8 |
| 20260507081521 | 8 | 316 | 11.3 | 19.3 | 0.00 | 2.36 | 0.51 | 95 | 1003.8 |
| 20260507080023 | 8 | 307 | 9.7 | 20.9 | 0.00 | 2.36 | 0.51 | 95 | 1003.9 |
| 20260507074519 | 8 | 298 | 9.7 | 16.1 | 0.03 | 2.36 | 0.51 | 95 | 1003.7 |
| 20260507073017 | 8 | 298 | 12.9 | 20.9 | 0.03 | 2.36 | 0.51 | 95 | 1003.5 |
| 20260507071515 | 9 | 311 | 9.7 | 25.7 | 0.03 | 2.36 | 0.51 | 95 | 1003.5 |
| 20260507070014 | 9 | 324 | 12.9 | 22.5 | 0.05 | 2.36 | 0.51 | 95 | 1003.0 |
| 20260507064511 | 10 | 1 | 12.9 | 20.9 | 0.23 | 2.34 | 0.48 | 95 | 1003.2 |
| 20260507063010 | 10 | 337 | 11.3 | 17.7 | 0.43 | 2.34 | 0.48 | 95 | 1003.3 |
| 20260507061509 | 10 | 263 | 8.0 | 19.3 | 0.48 | 2.34 | 0.48 | 95 | 1003.4 |
| 20260507060008 | 10 | 245 | 11.3 | 16.1 | 0.46 | 2.31 | 0.46 | 95 | 1002.9 |
| 20260507054516 | 10 | 252 | 12.9 | 32.2 | 0.20 | 2.06 | 0.20 | 94 | 1003.4 |
| 20260507053005 | 10 | 194 | 11.3 | 25.7 | 0.05 | 1.91 | 0.05 | 94 | 1003.1 |
| 20260507051504 | 10 | 229 | 9.7 | 19.3 | 0.00 | 1.85 | 0.00 | 95 | 1003.4 |
| 20260507050100 | 10 | 297 | 6.4 | 19.3 | 0.00 | 1.85 | 0.00 | 94 | 1003.6 |
| 20260507044559 | 10 | 185 | 9.7 | 20.9 | 0.00 | 1.85 | 1.85 | 94 | 1003.1 |
| 20260507043058 | 10 | 208 | 11.3 | 22.5 | 0.00 | 1.85 | 1.85 | 94 | 1003.3 |
| 20260507041559 | 10 | 186 | 11.3 | 29.0 | 0.00 | 1.85 | 1.85 | 94 | 1003.4 |
| 20260507040057 | 10 | 212 | 12.9 | 30.6 | 0.00 | 1.85 | 1.85 | 94 | 1003.6 |
| 20260507034556 | 10 | 199 | 14.5 | 38.6 | 0.00 | 1.85 | 1.85 | 94 | 1003.7 |
| 20260507033054 | 10 | 207 | 14.5 | 37.0 | 0.08 | 1.85 | 1.85 | 94 | 1003.7 |
| 20260507031549 | 10 | 129 | 12.9 | 38.6 | 0.25 | 1.85 | 1.85 | 94 | 1003.8 |
| 20260507030047 | 10 | 185 | 27.4 | 49.9 | 0.33 | 1.85 | 1.85 | 94 | 1004.0 |
| 20260507024548 | 11 | 197 | 17.7 | 33.8 | 0.41 | 1.83 | 1.83 | 94 | 1004.2 |
| 20260507023049 | 10 | 176 | 12.9 | 30.6 | 0.53 | 1.78 | 1.78 | 94 | 1004.4 |
| 20260507021545 | 10 | 189 | 17.7 | 35.4 | 0.51 | 1.60 | 1.60 | 93 | 1004.6 |
| 20260507020058 | 10 | 176 | 20.9 | 40.2 | 0.51 | 1.50 | 1.50 | 93 | 1004.7 |
| 20260507014537 | 11 | 152 | 16.1 | 32.2 | 0.48 | 1.40 | 1.40 | 94 | 1005.0 |
| 20260507013047 | 11 | 152 | 19.3 | 37.0 | 0.38 | 1.24 | 1.24 | 93 | 1005.4 |
| 20260507011533 | 11 | 174 | 19.3 | 35.4 | 0.36 | 1.07 | 1.07 | 93 | 1005.8 |
| 20260507010034 | 11 | 160 | 11.3 | 29.0 | 0.48 | 0.99 | 0.99 | 93 | 1005.9 |
| 20260507004527 | 11 | 180 | 12.9 | 29.0 | 0.48 | 0.91 | 0.91 | 93 | 1006.2 |
| 20260507003040 | 11 | 158 | 12.9 | 29.0 | 0.58 | 0.86 | 0.86 | 93 | 1006.4 |
| 20260507001524 | 11 | 179 | 11.3 | 33.8 | 0.48 | 0.69 | 0.69 | 92 | 1006.5 |
| 20260507000023 | 11 | 155 | 12.9 | 30.6 | 0.30 | 0.48 | 0.48 | 92 | 1006.7 |
| 20260506234522 | 11 | 208 | 16.1 | 40.2 | 0.25 | 0.41 | 0.41 | 92 | 1006.9 |
| 20260506233022 | 11 | 191 | 19.3 | 38.6 | 0.15 | 0.28 | 0.28 | 92 | 1006.8 |
| 20260506231520 | 11 | 201 | 14.5 | 25.7 | 0.10 | 0.20 | 0.20 | 92 | 1006.9 |
| 20260506230020 | 11 | 196 | 12.9 | 29.0 | 0.10 | 0.18 | 0.18 | 92 | 1007.0 |
| 20260506224518 | 11 | 186 | 12.9 | 37.0 | 0.13 | 0.15 | 0.15 | 92 | 1006.9 |
| 20260506223016 | 11 | 179 | 11.3 | 27.4 | 0.10 | 0.13 | 0.13 | 92 | 1007.3 |
| 20260506221516 | 11 | 164 | 17.7 | 46.7 | 0.10 | 0.10 | 0.10 | 92 | 1007.4 |
| 20260506220013 | 10 | 169 | 12.9 | 37.0 | 0.05 | 0.05 | 0.05 | 91 | 1007.9 |
| 20260506214514 | 11 | 189 | 14.5 | 41.8 | 0.03 | 0.03 | 0.03 | 91 | 1008.2 |
| 20260506213009 | 10 | 179 | 16.1 | 35.4 | 0.03 | 0.03 | 0.03 | 91 | 1007.9 |
| 20260506211509 | 11 | 200 | 14.5 | 35.4 | 0.00 | 0.00 | 0.00 | 90 | 1008.2 |
| 20260506210007 | 11 | 181 | 16.1 | 41.8 | 0.00 | 0.00 | 0.00 | 90 | 1008.3 |
| 20260506204505 | 11 | 220 | 22.5 | 43.5 | 0.00 | 0.00 | 0.00 | 89 | 1008.4 |
| 20260506203004 | 12 | 245 | 11.3 | 29.0 | 0.00 | 0.00 | 0.00 | 88 | 1008.4 |
| 20260506201504 | 12 | 172 | 16.1 | 40.2 | 0.00 | 0.00 | 0.00 | 88 | 1007.7 |
| 20260506200003 | 12 | 198 | 16.1 | 35.4 | 0.00 | 0.00 | 0.00 | 88 | 1008.0 |
| 20260506194502 | 12 | 197 | 22.5 | 45.1 | 0.00 | 0.00 | 0.00 | 88 | 1007.8 |
| 20260506193059 | 12 | 176 | 16.1 | 38.6 | 0.00 | 0.00 | 0.00 | 88 | 1008.1 |
| 20260506191558 | 12 | 208 | 16.1 | 40.2 | 0.00 | 0.00 | 0.00 | 88 | 1008.3 |
| 20260506190101 | 12 | 170 | 12.9 | 33.8 | 0.00 | 0.00 | 0.00 | 88 | 1008.5 |
| 20260506184558 | 11 | 174 | 16.1 | 33.8 | 0.00 | 0.00 | 0.00 | 89 | 1008.5 |
| 20260506183103 | 11 | 210 | 20.9 | 35.4 | 0.00 | 0.00 | 0.00 | 89 | 1008.5 |
| 20260506181618 | 11 | 193 | 17.7 | 35.4 | 0.00 | 0.00 | 0.00 | 89 | 1008.8 |
| 20260506180047 | 11 | 213 | 17.7 | 35.4 | 0.00 | 0.00 | 0.00 | 89 | 1009.0 |
| 20260506174545 | 11 | 172 | 14.5 | 29.0 | 0.00 | 0.00 | 0.00 | 89 | 1009.2 |
| 20260506173055 | 11 | 191 | 12.9 | 33.8 | 0.00 | 0.00 | 0.00 | 89 | 1009.3 |
| 20260506171543 | 11 | 191 | 17.7 | 35.4 | 0.00 | 0.00 | 0.00 | 89 | 1009.6 |
| 20260506170042 | 11 | 201 | 19.3 | 40.2 | 0.00 | 0.00 | 0.00 | 88 | 1009.7 |
| 20260506164543 | 12 | 162 | 16.1 | 40.2 | 0.00 | 0.00 | 0.00 | 87 | 1009.8 |
| 20260506163042 | 12 | 211 | 12.9 | 30.6 | 0.00 | 0.00 | 0.00 | 88 | 1010.3 |
| 20260506161539 | 11 | 185 | 19.3 | 35.4 | 0.00 | 0.00 | 0.00 | 88 | 1010.4 |
| 20260506160039 | 12 | 191 | 16.1 | 35.4 | 0.00 | 0.00 | 0.00 | 88 | 1010.3 |
| 20260506154538 | 12 | 182 | 24.1 | 43.5 | 0.00 | 0.00 | 0.00 | 88 | 1010.2 |
| 20260506153055 | 12 | 176 | 19.3 | 41.8 | 0.00 | 0.00 | 0.00 | 88 | 1009.9 |
| 20260506151542 | 12 | 203 | 16.1 | 33.8 | 0.00 | 0.00 | 0.00 | 88 | 1010.1 |
| 20260506150035 | 12 | 197 | 17.7 | 30.6 | 0.00 | 0.00 | 0.00 | 88 | 1010.5 |
| 20260506144532 | 11 | 180 | 12.9 | 30.6 | 0.00 | 0.00 | 0.00 | 90 | 1010.7 |
| 20260506143033 | 11 | 171 | 9.7 | 25.7 | 0.00 | 0.00 | 0.00 | 90 | 1010.9 |
| 20260506141532 | 11 | 172 | 11.3 | 25.7 | 0.00 | 0.00 | 0.00 | 90 | 1010.7 |
| 20260506140031 | 11 | 167 | 11.3 | 25.7 | 0.00 | 0.00 | 0.00 | 90 | 1010.7 |